createdAt,value
2018-12-24T00:00:47.875Z,7.62
2018-12-24T00:02:06.658Z,6.72
2018-12-24T00:03:23.134Z,7.35
2018-12-24T00:04:42.256Z,7.85
2018-12-24T00:05:59.694Z,9.25
2018-12-24T00:07:16.578Z,8.00
2018-12-24T00:08:32.956Z,8.60
2018-12-24T00:09:49.022Z,7.70
2018-12-24T00:11:06.192Z,6.35
2018-12-24T00:12:22.965Z,7.33
2018-12-24T00:13:41.043Z,7.10
2018-12-24T00:15:26.751Z,8.53
2018-12-24T00:16:47.581Z,7.60
2018-12-24T00:18:03.754Z,8.68
2018-12-24T00:19:21.406Z,7.47
2018-12-24T00:20:38.916Z,6.53
2018-12-24T00:22:02.805Z,6.78
2018-12-24T00:23:21.216Z,6.65
2018-12-24T00:24:37.117Z,7.15
2018-12-24T00:25:53.038Z,6.83
2018-12-24T00:27:10.756Z,8.53
2018-12-24T00:28:27.559Z,7.42
2018-12-24T00:29:43.854Z,7.35
2018-12-24T00:30:59.977Z,7.83
2018-12-24T00:32:15.834Z,7.03
2018-12-24T00:33:32.055Z,8.35
2018-12-24T00:34:48.362Z,7.37
2018-12-24T00:36:04.234Z,8.40
2018-12-24T00:37:20.643Z,8.20
2018-12-24T00:38:37.040Z,6.75
2018-12-24T00:39:53.321Z,8.43
2018-12-24T00:41:10.822Z,7.67
2018-12-24T00:42:29.694Z,7.65
2018-12-24T00:43:46.192Z,8.55
2018-12-24T00:45:03.393Z,7.97
2018-12-24T00:46:19.581Z,8.88
2018-12-24T00:47:35.583Z,6.03
2018-12-24T00:48:51.387Z,6.00
2018-12-24T00:50:07.223Z,8.00
2018-12-24T00:52:40.646Z,6.42
2018-12-24T00:53:57.157Z,6.00
2018-12-24T00:55:13.964Z,6.70
2018-12-24T00:56:37.621Z,7.10
2018-12-24T00:57:53.442Z,6.45
2018-12-24T00:59:09.947Z,7.25
2018-12-24T01:00:26.086Z,6.45
2018-12-24T01:01:43.815Z,8.13
2018-12-24T01:03:00.190Z,8.68
2018-12-24T01:04:16.584Z,8.08
2018-12-24T01:05:32.340Z,8.25
2018-12-24T01:06:51.521Z,11.30
2018-12-24T01:08:10.402Z,9.70
2018-12-24T01:09:27.106Z,11.03
2018-12-24T01:10:43.535Z,9.10
2018-12-24T01:11:59.635Z,10.05
2018-12-24T01:13:16.084Z,10.20
2018-12-24T01:14:32.071Z,9.95
2018-12-24T01:15:51.185Z,9.75
2018-12-24T01:17:07.756Z,9.95
2018-12-24T01:18:23.788Z,10.03
2018-12-24T01:19:40.001Z,9.93
2018-12-24T01:20:56.385Z,13.40
2018-12-24T01:22:13.007Z,10.80
2018-12-24T01:23:29.746Z,8.65
2018-12-24T01:24:46.497Z,9.00
2018-12-24T01:26:03.186Z,8.80
2018-12-24T01:27:19.435Z,8.10
2018-12-24T01:28:39.881Z,7.75
2018-12-24T01:30:01.690Z,8.65
2018-12-24T01:31:17.987Z,8.93
2018-12-24T01:32:33.850Z,8.68
2018-12-24T01:33:49.990Z,9.25
2018-12-24T01:35:06.536Z,8.80
2018-12-24T01:36:24.066Z,8.70
2018-12-24T01:37:42.935Z,9.85
2018-12-24T01:38:59.258Z,10.13
2018-12-24T01:40:18.895Z,9.45
2018-12-24T01:41:35.082Z,10.72
2018-12-24T01:42:50.892Z,9.78
2018-12-24T01:44:06.853Z,10.78
2018-12-24T01:45:23.333Z,10.53
2018-12-24T01:46:39.463Z,10.88
2018-12-24T01:47:55.490Z,9.75
2018-12-24T01:49:13.052Z,9.28
2018-12-24T01:50:31.092Z,9.75
2018-12-24T01:51:47.545Z,10.05
2018-12-24T01:54:47.828Z,10.48
2018-12-24T01:56:04.447Z,8.90
2018-12-24T01:57:21.208Z,8.35
2018-12-24T01:58:37.374Z,10.85
2018-12-24T01:59:53.798Z,10.25
2018-12-24T02:01:09.917Z,9.58
2018-12-24T02:02:25.650Z,10.18
2018-12-24T02:03:46.998Z,10.08
2018-12-24T02:05:02.930Z,9.43
2018-12-24T02:06:19.376Z,9.63
2018-12-24T02:07:37.455Z,10.00
2018-12-24T02:08:55.110Z,9.48
2018-12-24T02:10:11.030Z,9.73
2018-12-24T02:11:27.209Z,10.85
2018-12-24T02:12:43.326Z,8.00
2018-12-24T02:13:59.473Z,8.35
2018-12-24T02:15:15.589Z,9.03
2018-12-24T02:16:32.053Z,8.73
2018-12-24T02:17:48.609Z,9.43
2018-12-24T02:19:05.054Z,9.98
2018-12-24T02:20:21.534Z,9.33
2018-12-24T02:21:39.450Z,9.08
2018-12-24T02:22:56.158Z,9.15
2018-12-24T02:24:12.319Z,9.30
2018-12-24T02:25:28.417Z,9.00
2018-12-24T02:26:44.490Z,9.28
2018-12-24T02:28:00.606Z,8.43
2018-12-24T02:29:17.077Z,7.53
2018-12-24T02:30:33.618Z,10.58
2018-12-24T02:31:49.794Z,8.18
2018-12-24T02:33:06.083Z,9.58
2018-12-24T02:34:22.207Z,7.47
2018-12-24T02:35:38.233Z,7.95
2018-12-24T02:36:54.149Z,6.70
2018-12-24T02:38:10.103Z,8.13
2018-12-24T02:39:25.994Z,7.10
2018-12-24T02:40:42.170Z,7.90
2018-12-24T02:41:58.332Z,7.87
2018-12-24T02:43:14.626Z,7.40
2018-12-24T02:44:30.979Z,6.58
2018-12-24T02:45:48.241Z,6.55
2018-12-24T02:47:05.150Z,7.42
2018-12-24T02:48:23.207Z,6.97
2018-12-24T02:49:39.509Z,6.37
2018-12-24T02:50:55.696Z,5.90
2018-12-24T02:52:10.541Z,6.42
2018-12-24T02:55:03.238Z,6.75
2018-12-24T02:56:19.436Z,6.97
2018-12-24T02:57:35.825Z,7.45
2018-12-24T02:58:51.927Z,7.20
2018-12-24T03:00:06.902Z,8.40
2018-12-24T03:03:06.014Z,7.45
2018-12-24T03:04:22.078Z,7.22
2018-12-24T03:05:38.499Z,7.67
2018-12-24T03:06:54.342Z,7.58
2018-12-24T03:08:10.579Z,9.40
2018-12-24T03:09:46.012Z,7.17
2018-12-24T03:10:54.018Z,8.08
2018-12-24T03:13:32.359Z,8.05
2018-12-24T03:14:50.028Z,8.28
2018-12-24T03:16:05.858Z,7.47
2018-12-24T03:17:22.028Z,9.03
2018-12-24T03:18:38.198Z,15.32
2018-12-24T03:19:54.445Z,9.10
2018-12-24T03:21:12.045Z,7.92
2018-12-24T03:22:28.573Z,8.05
2018-12-24T03:23:44.418Z,10.05
2018-12-24T03:25:00.762Z,10.13
2018-12-24T03:26:17.546Z,9.90
2018-12-24T03:27:33.631Z,7.62
2018-12-24T03:28:50.138Z,8.40
2018-12-24T03:30:06.446Z,9.25
2018-12-24T03:31:22.455Z,7.97
2018-12-24T03:32:38.875Z,9.98
2018-12-24T03:33:54.791Z,10.58
2018-12-24T03:35:10.814Z,11.63
2018-12-24T03:36:45.129Z,10.13
2018-12-24T03:37:52.462Z,10.03
2018-12-24T03:39:09.371Z,11.33
2018-12-24T03:40:25.280Z,11.50
2018-12-24T03:41:41.237Z,10.13
2018-12-24T03:42:57.642Z,11.10
2018-12-24T03:44:13.680Z,10.13
2018-12-24T03:45:29.746Z,10.35
2018-12-24T03:46:45.733Z,10.15
2018-12-24T03:48:01.898Z,15.98
2018-12-24T03:49:19.940Z,10.10
2018-12-24T03:50:35.788Z,9.28
2018-12-24T03:51:53.507Z,11.48
2018-12-24T03:53:10.058Z,9.23
2018-12-24T03:54:25.987Z,9.50
2018-12-24T03:55:42.018Z,8.80
2018-12-24T03:56:57.871Z,10.20
2018-12-24T03:58:13.849Z,8.60
2018-12-24T03:59:29.894Z,9.50
2018-12-24T04:00:46.047Z,9.93
2018-12-24T04:02:03.662Z,12.20
2018-12-24T04:03:19.591Z,9.88
2018-12-24T04:04:35.446Z,11.55
2018-12-24T04:05:51.465Z,12.20
2018-12-24T04:07:07.749Z,10.88
2018-12-24T04:08:23.993Z,11.95
2018-12-24T04:09:40.711Z,11.08
2018-12-24T04:10:56.640Z,11.50
2018-12-24T04:12:12.773Z,10.58
2018-12-24T04:13:28.709Z,11.33
2018-12-24T04:14:44.599Z,10.03
2018-12-24T04:16:01.684Z,10.78
2018-12-24T04:17:42.787Z,9.68
2018-12-24T04:20:23.369Z,9.43
2018-12-24T04:21:41.851Z,9.20
2018-12-24T04:22:58.015Z,10.18
2018-12-24T04:24:13.892Z,10.30
2018-12-24T04:25:30.209Z,11.20
2018-12-24T04:26:46.632Z,9.93
2018-12-24T04:28:03.001Z,10.98
2018-12-24T04:29:19.434Z,10.60
2018-12-24T04:30:37.743Z,10.65
2018-12-24T04:31:55.800Z,10.38
2018-12-24T04:33:12.900Z,9.83
2018-12-24T04:34:31.256Z,10.13
2018-12-24T04:35:48.043Z,8.58
2018-12-24T04:37:17.650Z,9.80
2018-12-24T04:38:36.575Z,9.78
2018-12-24T04:39:57.094Z,9.03
2018-12-24T04:41:13.833Z,10.00
2018-12-24T04:42:32.468Z,7.78
2018-12-24T04:43:50.114Z,7.97
2018-12-24T04:45:06.671Z,7.40
2018-12-24T04:46:22.946Z,8.30
2018-12-24T04:47:42.541Z,7.87
2018-12-24T04:48:58.798Z,8.13
2018-12-24T04:50:15.464Z,7.92
2018-12-24T04:51:32.880Z,8.63
2018-12-24T04:52:49.893Z,9.18
2018-12-24T04:54:08.153Z,7.40
2018-12-24T04:55:24.792Z,8.45
2018-12-24T04:56:41.448Z,11.73
2018-12-24T04:57:57.633Z,8.40
2018-12-24T04:59:13.810Z,8.45
2018-12-24T05:00:29.685Z,7.20
2018-12-24T05:01:45.979Z,8.48
2018-12-24T05:03:02.161Z,7.95
2018-12-24T05:04:18.303Z,8.50
2018-12-24T05:05:36.344Z,8.20
2018-12-24T05:06:54.286Z,8.70
2018-12-24T05:08:10.862Z,8.05
2018-12-24T05:09:28.684Z,8.05
2018-12-24T05:10:45.972Z,9.23
2018-12-24T05:12:02.510Z,9.38
2018-12-24T05:13:21.808Z,7.95
2018-12-24T05:14:40.659Z,9.25
2018-12-24T05:15:56.666Z,9.85
2018-12-24T05:17:18.328Z,8.60
2018-12-24T05:18:35.000Z,9.35
2018-12-24T05:19:51.387Z,7.83
2018-12-24T05:21:09.095Z,8.40
2018-12-24T05:22:25.034Z,8.28
2018-12-24T05:23:44.431Z,8.55
2018-12-24T05:25:00.644Z,9.35
2018-12-24T05:27:34.963Z,8.68
2018-12-24T05:28:58.346Z,9.43
2018-12-24T05:30:15.423Z,8.93
2018-12-24T05:31:32.075Z,8.00
2018-12-24T05:32:48.016Z,9.65
2018-12-24T05:34:04.017Z,7.97
2018-12-24T05:35:19.972Z,9.30
2018-12-24T05:36:35.921Z,8.95
2018-12-24T05:37:51.800Z,9.90
2018-12-24T05:39:07.480Z,9.80
2018-12-24T05:41:30.835Z,9.05
2018-12-24T05:44:31.492Z,9.70
2018-12-24T05:45:49.596Z,10.35
2018-12-24T05:47:06.102Z,10.45
2018-12-24T05:48:23.317Z,10.23
2018-12-24T05:49:42.657Z,8.45
2018-12-24T05:50:59.031Z,9.45
2018-12-24T05:52:14.747Z,10.10
2018-12-24T05:53:31.130Z,12.47
2018-12-24T05:56:29.638Z,9.43
2018-12-24T05:57:57.924Z,10.75
2018-12-24T05:59:13.841Z,10.00
2018-12-24T06:00:29.727Z,11.00
2018-12-24T06:01:45.887Z,11.38
2018-12-24T06:03:02.209Z,9.03
2018-12-24T06:04:19.523Z,9.70
2018-12-24T06:05:40.868Z,9.73
2018-12-24T06:07:16.621Z,11.60
2018-12-24T06:08:22.871Z,9.00
2018-12-24T06:09:39.311Z,9.15
2018-12-24T06:10:55.768Z,10.08
2018-12-24T06:12:16.249Z,9.93
2018-12-24T06:13:34.260Z,9.40
2018-12-24T06:14:51.005Z,10.60
2018-12-24T06:16:07.334Z,9.93
2018-12-24T06:17:23.612Z,10.38
2018-12-24T06:18:39.797Z,10.28
2018-12-24T06:19:56.096Z,12.37
2018-12-24T06:21:12.042Z,11.10
2018-12-24T06:22:28.168Z,10.25
2018-12-24T06:23:43.981Z,10.72
2018-12-24T06:25:00.002Z,11.12
2018-12-24T06:26:16.024Z,10.72
2018-12-24T06:27:33.115Z,10.32
2018-12-24T06:28:50.356Z,10.25
2018-12-24T06:30:06.304Z,10.75
2018-12-24T06:31:22.588Z,12.53
2018-12-24T06:32:41.357Z,13.70
2018-12-24T06:33:57.792Z,13.20
2018-12-24T06:35:14.177Z,13.72
2018-12-24T06:36:33.692Z,12.58
2018-12-24T06:37:51.261Z,12.65
2018-12-24T06:39:07.291Z,12.53
2018-12-24T06:40:23.330Z,12.37
2018-12-24T06:41:39.619Z,11.78
2018-12-24T06:42:56.351Z,12.10
2018-12-24T06:44:13.838Z,12.18
2018-12-24T06:45:33.159Z,13.22
2018-12-24T06:46:52.357Z,13.25
2018-12-24T06:48:08.308Z,11.28
2018-12-24T06:49:24.447Z,12.00
2018-12-24T06:50:40.561Z,13.43
2018-12-24T06:51:56.937Z,10.80
2018-12-24T06:53:12.800Z,10.75
2018-12-24T06:54:28.716Z,10.95
2018-12-24T06:55:43.409Z,11.20
2018-12-24T06:58:35.493Z,11.60
2018-12-24T06:59:51.940Z,11.20
2018-12-24T07:01:08.147Z,10.28
2018-12-24T07:02:24.820Z,11.83
2018-12-24T07:03:40.752Z,11.20
2018-12-24T07:04:56.949Z,10.40
2018-12-24T07:06:14.098Z,9.98
2018-12-24T07:07:30.704Z,12.00
2018-12-24T07:08:47.074Z,10.80
2018-12-24T07:10:02.927Z,10.78
2018-12-24T07:11:19.617Z,10.03
2018-12-24T07:12:35.948Z,10.88
2018-12-24T07:13:51.955Z,11.43
2018-12-24T07:15:07.715Z,12.35
2018-12-24T07:16:24.452Z,10.75
2018-12-24T07:17:40.505Z,10.98
2018-12-24T07:18:58.882Z,11.30
2018-12-24T07:20:16.043Z,10.75
2018-12-24T07:21:32.760Z,11.38
2018-12-24T07:22:48.877Z,11.65
2018-12-24T07:24:05.098Z,12.78
2018-12-24T07:25:21.422Z,13.00
2018-12-24T07:26:37.264Z,13.03
2018-12-24T07:27:53.540Z,12.95
2018-12-24T07:29:09.801Z,13.40
2018-12-24T07:30:27.168Z,12.85
2018-12-24T07:31:43.997Z,12.98
2018-12-24T07:33:00.172Z,13.13
2018-12-24T07:34:16.233Z,13.38
2018-12-24T07:35:32.464Z,13.08
2018-12-24T07:36:48.492Z,15.25
2018-12-24T07:38:05.511Z,15.05
2018-12-24T07:39:21.390Z,13.55
2018-12-24T07:40:36.235Z,13.18
2018-12-24T07:41:52.145Z,13.00
2018-12-24T07:43:06.935Z,15.35
2018-12-24T07:44:30.599Z,21.87
2018-12-24T07:45:46.432Z,14.93
2018-12-24T07:47:02.794Z,15.72
2018-12-24T07:48:19.010Z,15.05
2018-12-24T07:49:35.191Z,14.90
2018-12-24T07:50:51.625Z,18.02
2018-12-24T07:52:07.796Z,16.05
2018-12-24T07:53:25.082Z,14.70
2018-12-24T07:54:41.099Z,14.98
2018-12-24T07:55:57.747Z,15.30
2018-12-24T07:57:14.104Z,18.82
2018-12-24T07:58:30.692Z,20.48
2018-12-24T07:59:46.724Z,16.73
2018-12-24T08:01:02.812Z,12.70
2018-12-24T08:02:19.109Z,14.47
2018-12-24T08:03:35.291Z,12.13
2018-12-24T08:04:51.290Z,13.03
2018-12-24T08:06:07.657Z,15.63
2018-12-24T08:07:23.633Z,15.45
2018-12-24T08:08:40.063Z,15.58
2018-12-24T08:09:56.007Z,15.15
2018-12-24T08:11:00.791Z,12.73
2018-12-24T08:12:24.893Z,12.50
2018-12-24T08:13:48.817Z,15.10
2018-12-24T08:15:04.928Z,12.60
2018-12-24T08:16:20.975Z,11.80
2018-12-24T08:17:37.264Z,11.75
2018-12-24T08:18:53.232Z,10.55
2018-12-24T08:20:09.345Z,11.18
2018-12-24T08:21:27.300Z,11.78
2018-12-24T08:22:43.343Z,10.53
2018-12-24T08:23:59.410Z,9.80
2018-12-24T08:25:15.949Z,10.48
2018-12-24T08:27:00.160Z,11.10
2018-12-24T08:28:31.333Z,10.45
2018-12-24T08:29:47.114Z,9.25
2018-12-24T08:31:03.220Z,10.40
2018-12-24T08:32:19.536Z,11.95
2018-12-24T08:33:35.821Z,9.80
2018-12-24T08:34:52.236Z,9.65
2018-12-24T08:36:08.309Z,13.35
2018-12-24T08:37:24.547Z,11.78
2018-12-24T08:38:40.442Z,14.03
2018-12-24T08:39:56.561Z,12.68
2018-12-24T08:41:14.010Z,9.25
2018-12-24T08:42:30.769Z,9.28
2018-12-24T08:43:47.014Z,10.63
2018-12-24T08:45:03.253Z,11.05
2018-12-24T08:46:19.509Z,11.55
2018-12-24T08:47:37.159Z,10.20
2018-12-24T08:48:53.553Z,9.50
2018-12-24T08:50:10.108Z,11.40
2018-12-24T08:51:26.589Z,9.55
2018-12-24T08:52:45.535Z,9.83
2018-12-24T08:54:06.213Z,10.40
2018-12-24T08:55:22.750Z,15.25
2018-12-24T08:56:42.164Z,9.68
2018-12-24T08:57:59.316Z,10.50
2018-12-24T08:59:17.764Z,9.08
2018-12-24T09:00:34.009Z,8.75
2018-12-24T09:01:50.969Z,11.68
2018-12-24T09:03:10.695Z,7.87
2018-12-24T09:04:47.705Z,7.15
2018-12-24T09:05:52.093Z,7.37
2018-12-24T09:07:08.690Z,8.10
2018-12-24T09:08:25.587Z,9.25
2018-12-24T09:09:42.705Z,7.20
2018-12-24T09:10:59.346Z,7.35
2018-12-24T09:12:22.194Z,8.05
2018-12-24T09:13:34.292Z,5.90
2018-12-24T09:14:51.454Z,7.53
2018-12-24T09:17:35.166Z,6.20
2018-12-24T09:20:28.468Z,6.53
2018-12-24T09:21:45.135Z,6.00
2018-12-24T09:23:01.342Z,7.50
2018-12-24T09:25:44.452Z,6.60
2018-12-24T09:27:00.658Z,5.80
2018-12-24T09:28:17.247Z,6.37
2018-12-24T09:29:33.120Z,6.92
2018-12-24T09:30:49.652Z,6.45
2018-12-24T09:32:06.282Z,6.22
2018-12-24T09:33:48.808Z,6.03
2018-12-24T09:35:04.863Z,5.53
2018-12-24T09:36:21.346Z,6.05
2018-12-24T09:37:37.301Z,5.30
2018-12-24T09:38:53.440Z,4.92
2018-12-24T09:40:09.531Z,5.03
2018-12-24T09:41:26.185Z,6.00
2018-12-24T09:42:42.332Z,6.35
2018-12-24T09:43:58.613Z,4.85
2018-12-24T09:45:15.329Z,4.90
2018-12-24T09:46:31.944Z,4.12
2018-12-24T09:47:47.931Z,5.00
2018-12-24T09:49:04.196Z,4.60
2018-12-24T09:50:20.228Z,5.28
2018-12-24T09:51:37.246Z,5.53
2018-12-24T09:52:53.220Z,4.85
2018-12-24T09:54:09.622Z,5.65
2018-12-24T09:55:25.531Z,4.90
2018-12-24T09:56:41.612Z,4.20
2018-12-24T09:57:58.272Z,4.33
2018-12-24T09:59:14.244Z,4.95
2018-12-24T10:00:30.324Z,5.25
2018-12-24T10:01:46.189Z,4.20
2018-12-24T10:03:02.694Z,5.03
2018-12-24T10:04:19.597Z,4.72
2018-12-24T10:05:36.425Z,3.83
2018-12-24T10:06:57.059Z,3.95
2018-12-24T10:08:12.917Z,3.30
2018-12-24T10:09:29.170Z,3.70
2018-12-24T10:10:49.343Z,5.50
2018-12-24T10:12:05.947Z,4.55
2018-12-24T10:13:22.192Z,4.85
2018-12-24T10:14:38.994Z,5.28
2018-12-24T10:16:12.565Z,4.15
2018-12-24T10:17:19.277Z,3.70
2018-12-24T10:18:36.582Z,3.62
2018-12-24T10:19:54.436Z,20.48
2018-12-24T10:21:13.016Z,6.50
2018-12-24T10:22:31.868Z,4.53
2018-12-24T10:23:48.415Z,4.20
2018-12-24T10:25:03.692Z,3.85
2018-12-24T10:26:27.517Z,3.30
2018-12-24T10:27:32.375Z,3.17
2018-12-24T10:28:37.096Z,3.45
2018-12-24T10:29:41.864Z,2.90
2018-12-24T10:30:46.797Z,3.52
2018-12-24T10:31:51.460Z,3.60
2018-12-24T10:32:56.102Z,3.33
2018-12-24T10:34:00.808Z,3.75
2018-12-24T10:35:05.935Z,3.75
2018-12-24T10:36:10.633Z,3.12
2018-12-24T10:37:15.247Z,3.15
2018-12-24T10:38:20.308Z,3.47
2018-12-24T10:39:55.661Z,3.67
2018-12-24T10:41:32.455Z,6.42
2018-12-24T10:42:40.032Z,3.92
2018-12-24T10:43:55.871Z,3.67
2018-12-24T10:45:02.331Z,3.25
2018-12-24T10:46:35.473Z,4.17
2018-12-24T10:47:41.125Z,3.80
2018-12-24T10:48:47.612Z,3.55
2018-12-24T10:50:06.320Z,4.80
2018-12-24T10:51:20.741Z,3.70
2018-12-24T10:52:38.104Z,3.65
2018-12-24T10:54:01.396Z,4.65
2018-12-24T10:55:15.124Z,4.90
2018-12-24T10:56:31.508Z,4.35
2018-12-24T10:57:54.813Z,4.37
2018-12-24T10:59:11.182Z,4.40
2018-12-24T11:00:30.076Z,6.35
2018-12-24T11:01:46.744Z,3.35
2018-12-24T11:03:02.836Z,3.47
2018-12-24T11:04:19.502Z,3.90
2018-12-24T11:05:35.776Z,4.05
2018-12-24T11:06:52.701Z,3.98
2018-12-24T11:08:08.956Z,3.67
2018-12-24T11:09:25.625Z,3.62
2018-12-24T11:10:46.718Z,3.80
2018-12-24T11:12:17.407Z,4.20
2018-12-24T11:13:34.195Z,4.60
2018-12-24T11:14:50.745Z,4.20
2018-12-24T11:16:06.492Z,3.67
2018-12-24T11:17:22.671Z,3.85
2018-12-24T11:18:40.785Z,4.37
2018-12-24T11:19:56.687Z,5.10
2018-12-24T11:21:12.601Z,6.15
2018-12-24T11:22:29.133Z,4.58
2018-12-24T11:23:45.968Z,4.17
2018-12-24T11:25:02.313Z,3.65
2018-12-24T11:26:19.318Z,4.65
2018-12-24T11:27:35.222Z,3.58
2018-12-24T11:28:51.676Z,4.20
2018-12-24T11:31:26.548Z,3.20
2018-12-24T11:32:44.568Z,3.20
2018-12-24T11:34:02.535Z,3.70
2018-12-24T11:35:18.753Z,3.65
2018-12-24T11:36:36.693Z,4.40
2018-12-24T11:37:53.168Z,3.25
2018-12-24T11:39:09.956Z,3.00
2018-12-24T11:40:26.437Z,4.00
2018-12-24T11:41:43.194Z,3.45
2018-12-24T11:42:59.624Z,3.50
2018-12-24T11:44:15.163Z,3.15
2018-12-24T11:45:33.911Z,3.47
2018-12-24T11:46:49.167Z,4.05
2018-12-24T11:48:05.475Z,3.40
2018-12-24T11:49:21.957Z,3.17
2018-12-24T11:50:41.241Z,3.90
2018-12-24T11:51:59.181Z,4.83
2018-12-24T11:53:16.102Z,5.22
2018-12-24T11:54:32.108Z,4.35
2018-12-24T11:55:48.453Z,4.05
2018-12-24T11:57:04.853Z,3.75
2018-12-24T11:58:23.895Z,4.12
2018-12-24T11:59:42.419Z,4.42
2018-12-24T12:01:00.083Z,4.80
2018-12-24T12:02:16.330Z,3.87
2018-12-24T12:03:33.382Z,3.40
2018-12-24T12:04:50.305Z,2.98
2018-12-24T12:06:07.517Z,3.95
2018-12-24T12:07:27.100Z,3.90
2018-12-24T12:08:43.480Z,4.37
2018-12-24T12:09:59.924Z,3.12
2018-12-24T12:11:15.902Z,2.85
2018-12-24T12:12:32.149Z,3.22
2018-12-24T12:13:48.202Z,2.15
2018-12-24T12:14:52.910Z,2.98
2018-12-24T12:16:35.465Z,3.22
2018-12-24T12:17:53.173Z,3.33
2018-12-24T12:19:12.933Z,3.52
2018-12-24T12:20:29.120Z,2.90
2018-12-24T12:21:45.990Z,3.45
2018-12-24T12:23:02.199Z,2.50
2018-12-24T12:24:19.051Z,2.95
2018-12-24T12:25:41.261Z,3.45
2018-12-24T12:27:00.085Z,3.12
2018-12-24T12:28:17.228Z,3.08
2018-12-24T12:29:34.060Z,5.00
2018-12-24T12:30:55.249Z,3.70
2018-12-24T12:32:11.644Z,2.90
2018-12-24T12:33:28.547Z,3.77
2018-12-24T12:34:49.604Z,2.95
2018-12-24T12:36:04.459Z,3.05
2018-12-24T12:37:22.169Z,2.70
2018-12-24T12:38:38.749Z,2.50
2018-12-24T12:39:57.611Z,2.17
2018-12-24T12:41:14.206Z,2.40
2018-12-24T12:42:30.964Z,3.10
2018-12-24T12:43:47.672Z,2.20
2018-12-24T12:51:07.657Z,2.92
2018-12-24T12:52:28.083Z,3.50
2018-12-24T12:55:03.343Z,3.60
2018-12-24T12:56:21.743Z,3.12
2018-12-24T12:57:38.928Z,4.40
2018-12-24T12:58:56.178Z,5.40
2018-12-24T13:00:13.077Z,7.50
2018-12-24T13:01:29.180Z,8.05
2018-12-24T13:02:46.028Z,17.32
2018-12-24T13:04:02.991Z,14.28
2018-12-24T13:05:36.566Z,7.80
2018-12-24T13:06:45.897Z,4.83
2018-12-24T13:08:00.635Z,4.00
2018-12-24T13:09:43.571Z,3.58
2018-12-24T13:10:44.585Z,2.33
2018-12-24T13:12:03.719Z,3.67
2018-12-24T13:13:20.664Z,6.15
2018-12-24T13:14:36.889Z,7.05
2018-12-24T13:15:59.543Z,6.30
2018-12-24T13:17:10.712Z,10.20
2018-12-24T13:18:26.988Z,11.22
2018-12-24T13:19:43.268Z,9.23
2018-12-24T13:22:34.816Z,6.30
2018-12-24T13:23:50.835Z,4.35
2018-12-24T13:25:08.887Z,3.95
2018-12-24T13:26:25.783Z,4.40
2018-12-24T13:27:43.024Z,3.80
2018-12-24T13:29:00.146Z,3.40
2018-12-24T13:30:16.865Z,3.85
2018-12-24T13:31:32.872Z,3.58
2018-12-24T13:32:49.754Z,3.83
2018-12-24T13:34:06.399Z,4.15
2018-12-24T13:35:23.071Z,6.92
2018-12-24T13:36:42.822Z,8.70
2018-12-24T13:37:59.864Z,6.50
2018-12-24T13:39:15.868Z,6.53
2018-12-24T13:40:31.605Z,7.92
2018-12-24T13:41:47.592Z,7.33
2018-12-24T13:43:05.808Z,5.97
2018-12-24T13:44:22.855Z,4.95
2018-12-24T13:45:39.483Z,3.95
2018-12-24T13:46:55.561Z,4.00
2018-12-24T13:48:11.434Z,4.00
2018-12-24T13:49:30.347Z,3.42
2018-12-24T13:50:46.396Z,4.05
2018-12-24T13:52:04.887Z,3.85
2018-12-24T13:53:23.111Z,3.22
2018-12-24T13:54:39.426Z,3.05
2018-12-24T13:55:55.612Z,4.55
2018-12-24T13:57:11.788Z,3.62
2018-12-24T13:58:28.165Z,2.70
2018-12-24T13:59:44.099Z,3.50
2018-12-24T14:01:00.125Z,4.70
2018-12-24T14:02:16.749Z,3.62
2018-12-24T14:03:35.288Z,3.10
2018-12-24T14:04:52.007Z,2.83
2018-12-24T14:06:08.419Z,3.02
2018-12-24T14:07:28.451Z,3.85
2018-12-24T14:08:47.096Z,3.30
2018-12-24T14:10:03.685Z,3.90
2018-12-24T14:11:20.215Z,3.60
2018-12-24T14:12:39.338Z,4.40
2018-12-24T14:13:56.036Z,3.80
2018-12-24T14:15:12.181Z,3.75
2018-12-24T14:16:28.379Z,3.72
2018-12-24T14:17:44.615Z,3.37
2018-12-24T14:19:01.081Z,3.80
2018-12-24T14:20:17.300Z,3.52
2018-12-24T14:21:35.724Z,4.10
2018-12-24T14:22:51.852Z,3.67
2018-12-24T14:25:54.010Z,4.08
2018-12-24T14:28:42.570Z,8.73
2018-12-24T14:30:17.756Z,4.75
2018-12-24T14:31:38.672Z,4.72
2018-12-24T14:32:55.037Z,4.70
2018-12-24T14:34:12.863Z,5.10
2018-12-24T14:35:30.621Z,7.28
2018-12-24T14:38:05.091Z,6.58
2018-12-24T14:40:57.627Z,6.05
2018-12-24T14:42:13.845Z,5.40
2018-12-24T14:43:30.781Z,5.30
2018-12-24T14:49:37.264Z,4.78
2018-12-24T14:50:53.745Z,4.10
2018-12-24T14:52:10.007Z,4.67
2018-12-24T14:53:26.011Z,5.95
2018-12-24T14:54:44.547Z,8.80
2018-12-24T14:56:00.674Z,7.72
2018-12-24T14:57:20.258Z,6.67
2018-12-24T14:58:40.065Z,5.83
2018-12-24T14:59:56.684Z,5.70
2018-12-24T15:01:14.009Z,4.65
2018-12-24T15:02:36.906Z,5.67
2018-12-24T15:03:53.225Z,4.85
2018-12-24T15:05:09.268Z,4.20
2018-12-24T15:06:26.946Z,4.28
2018-12-24T15:07:43.276Z,4.30
2018-12-24T15:09:00.242Z,5.72
2018-12-24T15:10:16.432Z,5.03
2018-12-24T15:11:32.417Z,4.37
2018-12-24T15:12:51.690Z,4.80
2018-12-24T15:14:10.395Z,4.60
2018-12-24T15:15:28.867Z,4.90
2018-12-24T15:16:45.090Z,3.90
2018-12-24T15:18:01.484Z,3.62
2018-12-24T15:19:17.949Z,4.80
2018-12-24T15:20:34.149Z,3.90
2018-12-24T15:23:12.043Z,5.25
2018-12-24T15:25:16.519Z,4.75
2018-12-24T15:26:44.722Z,4.22
2018-12-24T15:27:51.095Z,5.45
2018-12-24T15:29:06.951Z,5.70
2018-12-24T15:32:10.802Z,5.30
2018-12-24T15:33:26.983Z,5.80
2018-12-24T15:34:43.056Z,3.95
2018-12-24T15:35:59.244Z,4.90
2018-12-24T15:37:18.531Z,8.10
2018-12-24T15:38:35.087Z,7.85
2018-12-24T15:39:51.982Z,11.60
2018-12-24T15:42:26.728Z,11.28
2018-12-24T15:43:44.999Z,9.40
2018-12-24T15:45:01.073Z,6.75
2018-12-24T15:46:20.106Z,6.92
2018-12-24T15:47:36.409Z,6.40
2018-12-24T15:48:54.533Z,6.83
2018-12-24T15:50:29.092Z,5.60
2018-12-24T15:51:33.462Z,5.65
2018-12-24T15:52:50.599Z,7.00
2018-12-24T15:54:10.195Z,4.97
2018-12-24T15:55:26.964Z,6.35
2018-12-24T15:56:43.307Z,6.53
2018-12-24T15:57:59.547Z,5.40
2018-12-24T15:59:15.920Z,5.35
2018-12-24T16:00:33.257Z,5.65
2018-12-24T16:01:50.212Z,6.80
2018-12-24T16:03:06.112Z,8.58
2018-12-24T16:04:22.200Z,7.97
2018-12-24T16:05:38.562Z,9.53
2018-12-24T16:06:54.836Z,10.55
2018-12-24T16:08:11.203Z,12.63
2018-12-24T16:09:29.784Z,18.32
2018-12-24T16:10:46.285Z,18.95
2018-12-24T16:12:02.693Z,16.60
2018-12-24T16:13:18.996Z,20.30
2018-12-24T16:14:35.095Z,31.62
2018-12-24T16:15:50.928Z,38.75
2018-12-24T16:17:07.095Z,47.15
2018-12-24T16:18:23.220Z,41.18
2018-12-24T16:19:58.641Z,37.17
2018-12-24T16:21:04.363Z,23.85
2018-12-24T16:22:20.963Z,22.48
2018-12-24T16:23:37.513Z,16.35
2018-12-24T16:24:53.823Z,14.40
2018-12-24T16:26:10.439Z,11.10
2018-12-24T16:27:27.320Z,10.05
2018-12-24T16:28:45.178Z,13.05
2018-12-24T16:29:51.091Z,11.60
2018-12-24T16:31:26.539Z,10.65
2018-12-24T16:32:32.948Z,9.38
2018-12-24T16:33:51.210Z,9.75
2018-12-24T16:35:11.339Z,8.25
2018-12-24T16:36:27.276Z,9.75
2018-12-24T16:37:46.831Z,9.03
2018-12-24T16:39:02.903Z,8.08
2018-12-24T16:40:38.778Z,8.55
2018-12-24T16:41:47.977Z,8.90
2018-12-24T16:43:04.223Z,6.92
2018-12-24T16:44:21.662Z,7.55
2018-12-24T16:45:38.540Z,9.90
2018-12-24T16:46:59.514Z,11.30
2018-12-24T16:48:14.455Z,13.13
2018-12-24T16:49:34.157Z,14.15
2018-12-24T16:50:50.908Z,9.70
2018-12-24T16:52:07.858Z,10.90
2018-12-24T16:53:25.595Z,9.15
2018-12-24T16:54:45.693Z,9.65
2018-12-24T16:56:04.154Z,11.50
2018-12-24T16:58:37.336Z,9.80
2018-12-24T17:00:12.170Z,11.22
2018-12-24T17:01:28.367Z,9.10
2018-12-24T17:02:46.759Z,9.43
2018-12-24T17:04:21.092Z,11.75
2018-12-24T17:05:24.624Z,10.25
2018-12-24T17:08:15.881Z,11.63
2018-12-24T17:09:52.780Z,12.37
2018-12-24T17:11:18.272Z,11.30
2018-12-24T17:14:18.633Z,11.50
2018-12-24T17:15:55.587Z,10.18
2018-12-24T17:17:07.694Z,8.85
2018-12-24T17:18:08.137Z,9.70
2018-12-24T17:19:32.084Z,9.13
2018-12-24T17:21:09.337Z,8.05
2018-12-24T17:22:26.484Z,11.35
2018-12-24T17:23:45.768Z,10.15
2018-12-24T17:26:38.349Z,29.20
2018-12-24T17:28:01.754Z,51.00
2018-12-24T17:29:17.224Z,37.15
2018-12-24T17:30:21.879Z,22.65
2018-12-24T17:31:26.815Z,18.32
2018-12-24T17:32:35.539Z,15.65
2018-12-24T17:34:05.409Z,18.57
2018-12-24T17:35:22.042Z,17.60
2018-12-24T17:36:38.814Z,18.30
2018-12-24T17:38:00.182Z,16.87
2018-12-24T17:39:17.606Z,15.45
2018-12-24T17:40:33.673Z,17.15
2018-12-24T17:41:50.034Z,18.65
2018-12-24T17:43:07.212Z,19.23
2018-12-24T17:44:26.184Z,22.30
2018-12-24T17:45:44.419Z,19.55
2018-12-24T17:47:00.555Z,16.65
2018-12-24T17:48:17.165Z,16.73
2018-12-24T17:49:35.188Z,16.30
2018-12-24T17:51:09.315Z,15.05